< < Back
Terminal Aerodrome Forecast


Current Version              Previous Versions:   1  2  3  4  5  6  7  8  9  

Terminal Aerodrome Forecast

753
FTUS42 KCHS 272300
TAFSAV
TAF
KSAV 272322Z 2800/2824 32007KT P6SM SKC
     FM281400 01009KT P6SM SKC=



Latest METAR

560
SAUS80 KWBC 282300
MTRSAV
METAR KSAV 282253Z 00000KT 10SM CLR 08/M02 A3035 RMK AO2 SLP277
T00781017


USA.gov is the U.S. government's official web portal to all federal, state and local government web resources and services.